Time;durP1;ratioP1;P1;durP2;ratioP2;P2;SDS_P1;SDS_P2;PMS_P1;PMS_P2;Temp;Humidity;BMP_temperature;BMP_pressure;BME280_temperature;BME280_humidity;BME280_pressure;Samples;Min_cycle;Max_cycle;Signal;HPM_P1;HPM_P2
2021/01/08 00:01:00;;;;;;;13.83;9.50;;;2.00;99.90;;;2.72;95.18;99699.63;4989183;28;20299;-64
2021/01/08 00:03:27;;;;;;;14.53;9.13;;;2.00;99.90;;;2.75;95.29;99696.59;4990323;28;20257;-64
2021/01/08 00:05:55;;;;;;;12.73;9.00;;;1.90;99.90;;;2.91;93.82;99693.78;4990135;28;20268;-64
2021/01/08 00:08:22;;;;;;;13.40;9.27;;;2.00;99.90;;;2.90;93.66;99690.31;4989799;28;20199;-64
2021/01/08 00:10:50;;;;;;;14.57;9.93;;;2.00;99.90;;;2.93;93.66;99691.75;4989860;28;20200;-63
2021/01/08 00:13:17;;;;;;;12.83;8.47;;;2.00;99.90;;;3.05;93.31;99691.13;4990215;28;20225;-63
2021/01/08 00:15:44;;;;;;;13.13;8.90;;;2.00;99.90;;;3.03;93.17;99697.63;4989349;28;20799;-65
2021/01/08 00:18:12;;;;;;;14.60;9.40;;;2.10;99.90;;;2.96;93.63;99692.22;4989991;28;20229;-64
2021/01/08 00:20:44;;;;;;;14.27;9.97;;;2.10;99.90;;;2.71;95.00;99692.63;4989446;28;20188;-64
2021/01/08 00:23:12;;;;;;;13.60;9.50;;;2.00;99.90;;;2.79;95.59;99697.91;4989995;28;20207;-64
2021/01/08 00:25:40;;;;;;;14.23;9.60;;;1.90;99.90;;;2.91;94.45;99694.59;4989308;28;20210;-64
2021/01/08 00:28:08;;;;;;;14.60;9.30;;;1.90;99.90;;;2.71;94.81;99690.81;4989983;28;20202;-64
2021/01/08 00:30:35;;;;;;;14.77;9.47;;;1.90;99.90;;;2.70;96.32;99696.31;4989517;28;20211;-64
2021/01/08 00:33:03;;;;;;;13.83;9.47;;;1.90;99.90;;;2.68;96.11;99685.03;4989558;28;20266;-64
2021/01/08 00:35:31;;;;;;;15.17;9.87;;;1.80;99.90;;;2.90;95.10;99697.44;4989666;28;20207;-64
2021/01/08 00:37:58;;;;;;;17.03;10.80;;;1.90;99.90;;;2.79;95.83;99685.41;4989300;28;20263;-64
2021/01/08 00:40:25;;;;;;;16.20;10.00;;;1.80;99.90;;;3.14;93.69;99687.38;4989180;28;20235;-63
2021/01/08 00:42:52;;;;;;;13.43;9.60;;;2.00;99.90;;;2.93;94.18;99687.28;4989631;28;20199;-64
2021/01/08 00:45:21;;;;;;;18.17;11.17;;;2.00;99.90;;;2.64;96.30;99683.75;4989102;28;20246;-64
2021/01/08 00:47:48;;;;;;;15.73;10.33;;;1.90;99.90;;;2.49;97.35;99689.03;4989207;28;20732;-63
2021/01/08 00:50:16;;;;;;;15.00;9.93;;;1.80;99.90;;;2.57;97.04;99685.50;4989455;28;20207;-64
2021/01/08 00:52:43;;;;;;;16.60;11.07;;;1.80;99.90;;;2.53;98.22;99686.84;4989543;28;20207;-64
2021/01/08 00:55:12;;;;;;;12.37;9.63;;;1.70;99.90;;;2.87;96.02;99684.53;4988704;28;20245;-63
2021/01/08 00:57:40;;;;;;;16.03;9.63;;;1.70;99.90;;;2.68;96.43;99688.53;4972673;28;20677;-64
2021/01/08 01:00:09;;;;;;;14.60;10.13;;;1.70;99.90;;;2.63;97.56;99688.25;4969701;28;20208;-65
2021/01/08 01:02:37;;;;;;;14.20;9.50;;;1.70;99.90;;;2.61;96.29;99686.75;4972417;28;20287;-64
2021/01/08 01:05:05;;;;;;;16.63;10.40;;;1.70;99.90;;;2.58;96.85;99684.47;4969680;28;20615;-65
2021/01/08 01:07:32;;;;;;;13.33;9.70;;;1.70;99.90;;;2.44;98.25;99680.78;4969791;28;20287;-64
2021/01/08 01:09:59;;;;;;;13.30;9.90;;;1.60;99.90;;;2.65;96.59;99688.06;4969338;28;20216;-64
2021/01/08 01:12:27;;;;;;;16.10;10.50;;;1.70;99.90;;;2.45;97.20;99679.78;4969920;28;20264;-64
2021/01/08 01:14:55;;;;;;;17.13;11.00;;;1.70;99.90;;;2.83;96.30;99676.06;4969936;28;20200;-64
2021/01/08 01:17:22;;;;;;;14.83;10.20;;;1.70;99.90;;;2.69;97.00;99687.50;4969839;28;20292;-63
2021/01/08 01:19:52;;;;;;;14.73;9.63;;;1.70;99.90;;;2.45;98.04;99683.25;4969837;28;20247;-64
2021/01/08 01:22:20;;;;;;;15.73;10.53;;;1.70;99.90;;;2.43;98.83;99677.31;4969539;28;20561;-65
2021/01/08 01:24:47;;;;;;;15.10;9.77;;;1.60;99.90;;;2.80;96.84;99680.94;4969248;28;20754;-63
2021/01/08 01:27:14;;;;;;;15.80;10.27;;;1.70;99.90;;;2.59;97.40;99680.81;4985015;28;20288;-64
2021/01/08 01:29:42;;;;;;;14.47;10.07;;;1.70;99.90;;;2.73;97.70;99677.34;4988831;28;20728;-64
2021/01/08 01:32:09;;;;;;;14.63;10.67;;;1.70;99.90;;;2.63;97.40;99682.94;4990106;28;20235;-64
2021/01/08 01:34:36;;;;;;;13.73;9.80;;;1.70;99.90;;;2.89;96.03;99678.03;4992419;28;20199;-64
2021/01/08 01:37:04;;;;;;;14.93;10.03;;;1.80;99.90;;;2.54;97.76;99691.16;4992446;28;20210;-64
2021/01/08 01:39:32;;;;;;;14.20;9.70;;;1.70;99.90;;;2.52;99.47;99678.03;4992260;28;20617;-63
2021/01/08 01:41:59;;;;;;;16.30;10.97;;;1.70;99.90;;;2.50;99.00;99680.06;4992116;28;20207;-64
2021/01/08 01:44:26;;;;;;;16.00;10.87;;;1.60;99.90;;;2.35;100.00;99681.88;4994577;28;20291;-64
2021/01/08 01:46:53;;;;;;;15.40;11.57;;;1.60;99.90;;;2.41;100.00;99679.31;4994301;28;20212;-65
2021/01/08 01:49:21;;;;;;;15.97;11.23;;;1.60;99.90;;;2.43;100.00;99682.63;4994137;28;20200;-64
2021/01/08 01:51:51;;;;;;;16.73;10.13;;;1.50;99.90;;;2.34;100.00;99680.19;4993374;28;20203;-64
2021/01/08 01:54:19;;;;;;;16.87;11.17;;;1.60;99.90;;;2.80;98.20;99680.94;4992009;28;20205;-64
2021/01/08 01:56:46;;;;;;;17.03;11.37;;;1.60;99.90;;;2.88;97.26;99679.00;4992044;28;20204;-64
2021/01/08 01:59:13;;;;;;;16.03;10.67;;;1.70;99.90;;;2.71;96.89;99685.50;4991857;28;20364;-63
2021/01/08 02:01:41;;;;;;;15.57;10.30;;;1.80;99.90;;;2.65;97.95;99682.75;4991610;28;20231;-64
2021/01/08 02:04:09;;;;;;;15.60;10.53;;;1.80;99.90;;;2.41;100.00;99675.81;4991654;28;20722;-64
2021/01/08 02:06:38;;;;;;;16.17;10.70;;;1.60;99.90;;;2.69;98.96;99674.22;4991659;28;20225;-65
2021/01/08 02:09:12;;;;;;;15.03;10.17;;;1.70;99.90;;;2.65;98.77;99678.25;4991680;28;20207;-64
2021/01/08 02:11:46;;;;;;;16.40;10.47;;;1.70;99.90;;;2.57;98.08;99680.16;4991434;28;20632;-63
2021/01/08 02:14:19;;;;;;;15.23;10.40;;;1.70;99.90;;;2.77;97.95;99678.63;4991544;28;20187;-64
2021/01/08 02:16:50;;;;;;;15.77;10.37;;;1.70;99.90;;;2.55;98.46;99688.31;4991778;28;20220;-64
2021/01/08 02:19:25;;;;;;;16.93;10.60;;;1.70;99.90;;;2.72;98.59;99687.16;4991604;28;20207;-64
2021/01/08 02:22:00;;;;;;;15.60;10.87;;;1.70;99.90;;;2.72;98.00;99675.69;4991465;28;20183;-64
2021/01/08 02:24:36;;;;;;;17.13;10.90;;;1.70;99.90;;;2.70;98.44;99677.72;4991520;28;20289;-64
2021/01/08 02:27:05;;;;;;;15.73;10.97;;;1.70;99.90;;;2.46;99.17;99678.75;4991345;28;20226;-64
2021/01/08 02:29:33;;;;;;;14.37;9.87;;;1.70;99.90;;;2.61;99.65;99681.44;4991228;28;20242;-64
2021/01/08 02:32:02;;;;;;;14.83;10.47;;;1.60;99.90;;;2.30;100.00;99674.41;4991902;28;20229;-64
2021/01/08 02:34:30;;;;;;;15.47;10.53;;;1.60;99.90;;;2.21;100.00;99675.50;4993709;28;20286;-64
2021/01/08 02:36:59;;;;;;;13.63;9.90;;;1.50;99.90;;;2.43;100.00;99668.50;4994705;28;20239;-64
2021/01/08 02:39:26;;;;;;;15.83;10.63;;;1.50;99.90;;;2.36;100.00;99672.88;4993753;28;20710;-64
2021/01/08 02:41:55;;;;;;;15.73;11.07;;;1.40;99.90;;;2.45;100.00;99669.16;4992738;28;20604;-63
2021/01/08 02:44:24;;;;;;;17.90;11.60;;;1.50;99.90;;;2.61;99.72;99662.84;4991003;28;20290;-64
2021/01/08 02:46:51;;;;;;;15.47;11.23;;;1.60;99.90;;;2.35;100.00;99665.94;4991480;28;20265;-63
2021/01/08 02:49:19;;;;;;;15.63;10.73;;;1.50;99.90;;;2.38;100.00;99673.53;4991130;28;20674;-63
2021/01/08 02:51:46;;;;;;;15.03;10.90;;;1.50;99.90;;;2.42;100.00;99669.50;4991222;28;20253;-63
2021/01/08 02:54:14;;;;;;;14.93;10.63;;;1.50;99.90;;;2.60;100.00;99669.16;4991109;28;20702;-64
2021/01/08 02:56:47;;;;;;;17.03;11.03;;;1.50;99.90;;;2.60;99.45;99671.81;4991124;28;20207;-64
2021/01/08 02:59:15;;;;;;;15.70;10.83;;;1.60;99.90;;;2.55;100.00;99675.03;4990856;28;20234;-63
2021/01/08 03:01:45;;;;;;;16.30;11.27;;;1.60;99.90;;;2.95;98.00;99665.81;4991125;28;20282;-64
2021/01/08 03:04:13;;;;;;;14.80;10.10;;;1.70;99.90;;;2.69;98.44;99663.59;4991121;28;20188;-63
2021/01/08 03:06:44;;;;;;;15.60;10.73;;;1.70;99.90;;;2.83;98.83;99661.94;4991073;28;20600;-63
2021/01/08 03:09:12;;;;;;;15.40;10.70;;;1.80;99.90;;;2.78;98.56;99659.84;4990574;28;20186;-63
2021/01/08 03:11:39;;;;;;;14.60;10.17;;;1.80;99.90;;;2.55;99.60;99666.22;4990817;28;20204;-63
2021/01/08 03:14:07;;;;;;;14.10;9.97;;;1.80;99.90;;;2.34;100.00;99669.56;4990640;28;20235;-64
2021/01/08 03:16:34;;;;;;;17.33;10.93;;;1.70;99.90;;;2.43;100.00;99665.84;4990553;28;20746;-63
2021/01/08 03:19:02;;;;;;;15.60;11.33;;;1.60;99.90;;;2.28;100.00;99667.63;4990751;28;20223;-64
2021/01/08 03:21:32;;;;;;;15.60;10.90;;;1.50;99.90;;;2.28;100.00;99671.09;4990875;28;20241;-64
2021/01/08 03:24:01;;;;;;;15.90;10.77;;;1.50;99.90;;;2.57;100.00;99665.06;4990510;28;20203;-64
2021/01/08 03:26:28;;;;;;;16.27;11.23;;;1.50;99.90;;;2.43;100.00;99663.19;4990480;28;20208;-65
2021/01/08 03:28:56;;;;;;;15.37;10.67;;;1.50;99.90;;;2.59;100.00;99657.69;4990571;28;20225;-64
2021/01/08 03:31:23;;;;;;;15.30;10.57;;;1.60;99.90;;;2.35;100.00;99660.59;4990580;28;20231;-64
2021/01/08 03:33:50;;;;;;;16.90;10.87;;;1.60;99.90;;;2.58;100.00;99649.91;4990535;28;20191;-63
2021/01/08 03:36:18;;;;;;;17.55;13.02;;;1.60;99.90;;;2.57;100.00;99661.56;4989333;28;20840;-62
2021/01/08 03:38:46;;;;;;;15.37;11.57;;;1.60;99.90;;;2.66;100.00;99660.47;4990434;28;20293;-63
2021/01/08 03:41:13;;;;;;;14.27;10.30;;;1.70;99.90;;;2.79;100.00;99660.69;4990271;28;20286;-63
2021/01/08 03:43:41;;;;;;;16.77;11.23;;;1.70;99.90;;;2.85;99.91;99666.09;4990205;28;20252;-63
2021/01/08 03:46:08;;;;;;;15.07;9.90;;;1.80;99.90;;;2.80;100.00;99665.81;4990166;28;20208;-63
2021/01/08 03:48:39;;;;;;;15.50;11.37;;;1.80;99.90;;;2.76;100.00;99663.72;4990276;28;20204;-64
2021/01/08 03:51:08;;;;;;;16.37;10.73;;;1.80;99.90;;;2.67;100.00;99662.97;4990323;28;20191;-63
2021/01/08 03:53:36;;;;;;;15.33;11.20;;;1.80;99.90;;;2.62;100.00;99673.31;4989978;28;20429;-63
2021/01/08 03:56:04;;;;;;;18.13;11.23;;;1.80;99.90;;;2.69;100.00;99671.56;4989806;28;20200;-62
2021/01/08 03:58:32;;;;;;;14.97;10.57;;;1.70;99.90;;;2.55;100.00;99667.06;4990329;28;20256;-64
2021/01/08 04:00:59;;;;;;;15.90;10.77;;;1.70;99.90;;;2.68;100.00;99666.44;5000477;28;20234;-63
2021/01/08 04:03:26;;;;;;;16.57;11.03;;;1.80;99.90;;;2.52;100.00;99666.59;5091626;28;20253;-64
2021/01/08 04:05:53;;;;;;;14.20;10.50;;;1.70;99.90;;;2.48;100.00;99664.31;5092262;28;20232;-63
2021/01/08 04:08:21;;;;;;;15.83;11.60;;;1.70;99.90;;;2.68;100.00;99667.25;5092402;28;20227;-64
2021/01/08 04:10:49;;;;;;;14.77;11.13;;;1.70;99.90;;;2.73;100.00;99658.72;5092083;28;20281;-64
2021/01/08 04:13:16;;;;;;;16.13;11.97;;;1.80;99.90;;;2.71;100.00;99663.41;5092269;28;20239;-64
2021/01/08 04:15:43;;;;;;;15.93;11.03;;;1.80;99.90;;;2.50;100.00;99666.78;5092030;28;20286;-64
2021/01/08 04:18:11;;;;;;;14.47;10.30;;;1.80;99.90;;;2.70;100.00;99659.94;5092180;28;20231;-64
2021/01/08 04:20:38;;;;;;;15.60;10.23;;;1.70;99.90;;;2.50;100.00;99662.28;5092257;28;20199;-64
2021/01/08 04:23:06;;;;;;;14.97;10.87;;;1.70;99.90;;;2.55;100.00;99667.06;5092180;28;20348;-64
2021/01/08 04:25:33;;;;;;;14.67;11.07;;;1.70;99.90;;;2.67;100.00;99659.47;5082547;28;20287;-63
2021/01/08 04:28:01;;;;;;;15.20;9.90;;;1.70;99.90;;;2.65;100.00;99664.13;4989778;28;20299;-63
2021/01/08 04:30:29;;;;;;;16.27;10.87;;;1.70;99.90;;;2.86;100.00;99661.59;4989471;28;20616;-63
2021/01/08 04:32:56;;;;;;;16.20;10.63;;;1.80;99.90;;;3.12;100.00;99659.28;4989278;28;20278;-63
2021/01/08 04:35:23;;;;;;;16.80;10.53;;;1.90;99.90;;;2.87;100.00;99660.59;4989652;28;20320;-63
2021/01/08 04:37:50;;;;;;;15.20;10.83;;;1.90;99.90;;;2.94;100.00;99665.00;4989331;28;20291;-63
2021/01/08 04:40:19;;;;;;;15.23;10.90;;;1.90;99.90;;;2.74;100.00;99657.75;4989476;28;20208;-63
2021/01/08 04:42:47;;;;;;;15.87;10.73;;;1.90;99.90;;;2.92;100.00;99658.19;4989681;28;20239;-63
2021/01/08 04:45:16;;;;;;;15.43;11.13;;;1.90;99.90;;;2.77;100.00;99654.72;4989255;28;20235;-64
2021/01/08 04:47:46;;;;;;;15.93;11.77;;;1.90;99.90;;;2.75;100.00;99654.06;4989671;28;20204;-63
2021/01/08 04:50:15;;;;;;;16.40;11.83;;;1.80;99.90;;;2.72;100.00;99663.25;4989432;28;20210;-63
2021/01/08 04:52:43;;;;;;;17.70;11.43;;;1.80;99.90;;;3.00;100.00;99650.97;4989527;28;20231;-62
2021/01/08 04:55:11;;;;;;;15.43;11.23;;;1.90;99.90;;;2.84;100.00;99659.09;4989088;28;20294;-63
2021/01/08 04:57:40;;;;;;;16.07;12.10;;;1.90;99.90;;;2.53;100.00;99657.59;4989241;28;20200;-64
2021/01/08 05:00:09;;;;;;;17.30;12.43;;;1.80;99.90;;;2.83;100.00;99649.47;4989124;28;20203;-64
2021/01/08 05:02:37;;;;;;;18.27;11.63;;;1.80;99.90;;;2.99;100.00;99646.66;4989498;28;20295;-64
2021/01/08 05:05:06;;;;;;;15.80;11.20;;;1.90;99.90;;;2.66;100.00;99642.69;4989749;28;20203;-63
2021/01/08 05:07:33;;;;;;;17.37;11.53;;;1.90;99.90;;;2.48;100.00;99655.50;4992530;28;20291;-63
2021/01/08 05:10:01;;;;;;;18.60;11.33;;;1.70;99.90;;;2.44;100.00;99648.88;4992250;28;20597;-63
2021/01/08 05:12:42;;;;;;;18.17;11.90;;;1.60;99.90;;;2.59;100.00;99652.38;4992771;28;20294;-63
2021/01/08 05:15:12;;;;;;;16.57;11.87;;;1.70;99.90;;;2.68;100.00;99650.47;4992396;28;20334;-64
2021/01/08 05:17:42;;;;;;;16.43;11.93;;;1.70;99.90;;;2.62;100.00;99651.22;4992334;28;20556;-64
2021/01/08 05:20:11;;;;;;;16.90;11.67;;;1.70;99.90;;;2.74;100.00;99650.56;4992669;28;20727;-63
2021/01/08 05:22:40;;;;;;;17.10;11.50;;;1.70;99.90;;;2.84;100.00;99651.13;4992597;28;20203;-63
2021/01/08 05:25:09;;;;;;;19.13;13.03;;;1.70;99.90;;;2.95;100.00;99657.81;4992129;28;20214;-64
2021/01/08 05:27:37;;;;;;;16.53;11.43;;;1.80;99.90;;;2.72;100.00;99657.94;4992295;28;20211;-63
2021/01/08 05:30:17;;;;;;;16.10;11.43;;;1.80;99.90;;;2.37;100.00;99663.88;4992244;28;20203;-63
2021/01/08 05:32:46;;;;;;;15.70;11.17;;;1.70;99.90;;;2.37;100.00;99663.88;4992026;28;20269;-64
2021/01/08 05:35:16;;;;;;;16.93;12.10;;;1.70;99.90;;;2.49;100.00;99660.63;4992402;28;20200;-65
2021/01/08 05:37:47;;;;;;;19.30;11.57;;;1.60;99.90;;;2.76;100.00;99663.72;4992366;28;20290;-64
2021/01/08 05:40:14;;;;;;;17.70;12.23;;;1.70;99.90;;;2.64;100.00;99660.66;4992123;28;20253;-64
2021/01/08 05:42:56;;;;;;;16.17;11.50;;;1.70;99.90;;;2.52;100.00;99670.06;4992225;28;20309;-64
2021/01/08 05:45:24;;;;;;;15.07;10.97;;;1.70;99.90;;;2.96;100.00;99662.16;4991948;28;20206;-65
2021/01/08 05:47:56;;;;;;;16.83;11.37;;;1.80;99.90;;;3.00;100.00;99663.41;4991897;28;20246;-64
2021/01/08 05:50:25;;;;;;;16.03;11.07;;;1.90;99.90;;;2.91;100.00;99664.53;4992281;28;20267;-64
2021/01/08 05:53:00;;;;;;;14.63;10.17;;;1.90;99.90;;;2.76;100.00;99664.50;4992156;28;20231;-63
2021/01/08 05:55:28;;;;;;;17.47;11.43;;;1.90;99.90;;;2.45;100.00;99672.63;4992198;28;20215;-65
2021/01/08 05:57:55;;;;;;;14.90;11.40;;;1.80;99.90;;;2.58;100.00;99672.00;4992133;28;20286;-64
2021/01/08 06:00:23;;;;;;;16.33;11.10;;;1.70;99.90;;;2.65;100.00;99664.97;4991358;28;20320;-64
2021/01/08 06:02:52;;;;;;;14.87;10.87;;;1.70;99.90;;;2.45;100.00;99674.47;4991798;28;20205;-65
2021/01/08 06:05:20;;;;;;;14.70;11.17;;;1.70;99.90;;;2.46;100.00;99673.44;4991527;28;20545;-65
2021/01/08 06:07:50;;;;;;;16.80;12.03;;;1.60;99.90;;;2.46;100.00;99673.44;4991712;28;20624;-64
2021/01/08 06:10:25;;;;;;;17.40;13.17;;;1.60;99.90;;;2.72;100.00;99670.38;4991293;28;20592;-64
2021/01/08 06:12:53;;;;;;;17.37;13.20;;;1.60;99.90;;;2.52;100.00;99672.72;4991594;28;20219;-65
2021/01/08 06:15:21;;;;;;;16.00;13.30;;;1.60;99.90;;;2.64;100.00;99668.63;4991472;28;20207;-65
2021/01/08 06:17:51;;;;;;;19.00;14.20;;;1.60;99.90;;;2.74;100.00;99671.84;4990564;28;20694;-64
2021/01/08 06:20:21;;;;;;;16.47;13.17;;;1.70;99.90;;;2.65;100.00;99677.44;4991471;28;20286;-64
2021/01/08 06:22:48;;;;;;;15.00;11.13;;;1.70;99.90;;;2.53;100.00;99673.56;4991597;28;20227;-64
2021/01/08 06:25:17;;;;;;;14.90;11.83;;;1.70;99.90;;;2.53;100.00;99676.22;4991292;28;20211;-64
2021/01/08 06:27:48;;;;;;;15.97;11.03;;;1.70;99.90;;;2.71;100.00;99672.22;4991491;28;20235;-64
2021/01/08 06:30:27;;;;;;;15.63;11.07;;;1.70;99.90;;;2.37;100.00;99671.84;4990826;28;20278;-65
2021/01/08 06:33:03;;;;;;;16.07;11.80;;;1.60;99.90;;;2.37;100.00;99683.31;4991109;28;20648;-64
2021/01/08 06:35:33;;;;;;;14.57;10.70;;;1.60;99.90;;;2.44;100.00;99681.59;4991376;28;20226;-65
2021/01/08 06:38:01;;;;;;;15.70;11.57;;;1.60;99.90;;;2.45;100.00;99680.59;4992191;28;20241;-65
2021/01/08 06:40:42;;;;;;;15.43;10.93;;;1.60;99.90;;;2.78;100.00;99673.13;4992034;28;20204;-64
2021/01/08 06:43:21;;;;;;;15.50;11.33;;;1.70;99.90;;;2.77;100.00;99681.31;4991511;28;20556;-64
2021/01/08 06:45:56;;;;;;;17.33;11.53;;;1.70;99.90;;;2.61;100.00;99682.28;4993351;28;20279;-64
2021/01/08 06:48:25;;;;;;;14.43;10.77;;;1.70;99.90;;;2.59;100.00;99683.47;4995489;28;20182;-65
2021/01/08 06:50:57;;;;;;;16.80;12.10;;;1.70;99.90;;;2.45;100.00;99687.75;4997169;28;20555;-65
2021/01/08 06:53:31;;;;;;;15.23;11.53;;;1.70;99.90;;;2.59;100.00;99697.56;4994084;28;20249;-64
2021/01/08 06:56:04;;;;;;;19.47;13.17;;;1.70;99.90;;;2.78;100.00;99702.38;4990484;28;20674;-64
2021/01/08 06:58:36;;;;;;;17.77;12.73;;;1.70;99.90;;;2.58;100.00;99698.59;4990963;28;20210;-66
2021/01/08 07:01:05;;;;;;;17.00;12.70;;;1.80;99.90;;;2.56;100.00;99697.94;4990759;28;20183;-64
2021/01/08 07:03:33;;;;;;;17.00;12.00;;;1.70;99.90;;;2.68;100.00;99707.13;4991277;28;20227;-64
2021/01/08 07:06:01;;;;;;;19.17;12.20;;;1.70;99.90;;;2.42;100.00;99710.19;4990648;28;20683;-64
2021/01/08 07:08:29;;;;;;;17.00;12.53;;;1.70;99.90;;;2.62;100.00;99707.88;4991087;28;20258;-64
2021/01/08 07:10:56;;;;;;;17.93;12.60;;;1.70;99.90;;;2.55;100.00;99714.91;4990351;28;20211;-64
2021/01/08 07:13:30;;;;;;;14.90;11.03;;;1.60;99.90;;;2.47;100.00;99712.28;4990988;28;20235;-64
2021/01/08 07:15:58;;;;;;;15.10;10.97;;;1.70;99.90;;;2.31;100.00;99715.09;4989992;28;20738;-65
2021/01/08 07:18:27;;;;;;;15.53;11.37;;;1.60;99.90;;;2.34;100.00;99720.88;4990767;28;20277;-64
2021/01/08 07:20:58;;;;;;;15.90;11.03;;;1.50;99.90;;;2.28;100.00;99721.59;4991276;28;20229;-65
2021/01/08 07:23:45;;;;;;;15.67;11.53;;;1.50;99.90;;;2.54;100.00;99731.84;4991199;28;20196;-64
2021/01/08 07:26:17;;;;;;;14.43;11.43;;;1.60;99.90;;;2.55;100.00;99732.69;4990256;28;20199;-64
2021/01/08 07:28:50;;;;;;;16.70;11.33;;;1.60;99.90;;;2.52;100.00;99738.38;4990449;28;20603;-65
2021/01/08 07:31:31;;;;;;;15.43;11.03;;;1.60;99.90;;;2.64;100.00;99745.72;4990031;28;20223;-64
2021/01/08 07:34:01;;;;;;;16.00;11.20;;;1.60;99.90;;;2.85;100.00;99737.88;4990251;28;20187;-64
2021/01/08 07:36:31;;;;;;;15.83;11.53;;;1.70;99.90;;;2.71;100.00;99738.69;4990231;28;20220;-65
2021/01/08 07:39:01;;;;;;;17.80;13.33;;;1.80;99.90;;;2.51;100.00;99740.19;4990317;28;20210;-65
2021/01/08 07:41:42;;;;;;;18.40;12.77;;;1.70;99.90;;;2.59;100.00;99742.75;4990101;28;20207;-65
2021/01/08 07:44:33;;;;;;;17.17;12.90;;;1.70;99.90;;;2.71;100.00;99749.31;4990113;28;20263;-65
2021/01/08 07:47:26;;;;;;;17.27;13.60;;;1.80;99.90;;;2.79;100.00;99751.91;4990491;28;20199;-64
2021/01/08 07:50:12;;;;;;;15.40;11.70;;;1.80;99.90;;;2.63;100.00;99757.38;4990044;28;20271;-65
2021/01/08 07:52:43;;;;;;;14.63;10.90;;;1.80;99.90;;;2.94;100.00;99752.78;4990116;28;20244;-66
2021/01/08 07:55:12;;;;;;;15.53;10.93;;;1.90;99.90;;;2.96;100.00;99757.91;4990505;28;20193;-64
2021/01/08 07:58:04;;;;;;;14.03;10.27;;;1.90;99.90;;;2.98;100.00;99763.84;4990783;28;20698;-65
2021/01/08 08:00:33;;;;;;;14.60;10.90;;;1.90;99.90;;;2.82;100.00;99761.34;4997148;28;20746;-65
2021/01/08 08:03:02;;;;;;;14.83;10.97;;;1.90;99.90;;;2.80;100.00;99772.19;4990244;28;20257;-65
2021/01/08 08:05:31;;;;;;;13.87;10.40;;;1.90;99.90;;;2.73;100.00;99773.06;4989562;28;20204;-65
2021/01/08 08:08:03;;;;;;;13.90;10.53;;;1.90;99.90;;;2.85;100.00;99779.59;4989879;28;20298;-64
2021/01/08 08:10:32;;;;;;;14.67;10.93;;;1.90;99.90;;;2.94;100.00;99776.72;4989692;28;20188;-64
2021/01/08 08:12:59;;;;;;;17.13;10.50;;;1.90;99.90;;;3.01;100.00;99782.94;4989350;28;20256;-64
2021/01/08 08:15:26;;;;;;;14.23;10.17;;;2.00;99.90;;;3.03;100.00;99788.91;4990662;28;20207;-64
2021/01/08 08:17:54;;;;;;;16.50;11.93;;;2.00;99.90;;;2.89;100.00;99786.22;4990851;28;20257;-65
2021/01/08 08:20:24;;;;;;;14.50;11.73;;;2.00;99.90;;;2.73;100.00;99783.69;4990631;28;20227;-65
2021/01/08 08:22:53;;;;;;;15.83;12.57;;;2.00;99.90;;;2.75;100.00;99793.16;4989957;28;20208;-65
2021/01/08 08:25:29;;;;;;;15.20;11.50;;;1.90;99.90;;;2.74;100.00;99793.34;4989533;28;20235;-65
2021/01/08 08:28:00;;;;;;;15.83;12.00;;;1.90;99.90;;;2.65;100.00;99795.25;4989874;28;20196;-64
2021/01/08 08:30:29;;;;;;;16.13;11.67;;;1.90;99.90;;;3.00;100.00;99807.06;4989765;28;20187;-65
2021/01/08 08:32:58;;;;;;;15.77;12.20;;;2.00;99.90;;;2.89;100.00;99807.50;4989134;28;20326;-65
2021/01/08 08:35:25;;;;;;;15.40;10.63;;;1.90;99.90;;;2.94;100.00;99800.66;4989723;28;20525;-65
2021/01/08 08:37:55;;;;;;;14.50;10.70;;;1.90;99.90;;;3.07;100.00;99800.03;4989362;28;20225;-63
2021/01/08 08:40:25;;;;;;;14.77;11.27;;;2.00;99.90;;;3.09;100.00;99803.34;4988314;28;20330;-64
2021/01/08 08:42:54;;;;;;;13.87;11.03;;;2.10;99.90;;;2.95;100.00;99804.97;4989136;28;20249;-65
2021/01/08 08:45:26;;;;;;;13.37;10.50;;;2.10;99.90;;;3.01;100.00;99803.41;4989489;28;20623;-65
2021/01/08 08:47:56;;;;;;;13.73;10.17;;;2.10;99.90;;;3.33;100.00;99811.09;4989602;28;20239;-65
2021/01/08 08:50:25;;;;;;;15.37;10.20;;;2.20;99.90;;;3.17;100.00;99811.22;4989309;28;20639;-65
2021/01/08 08:52:53;;;;;;;13.93;10.30;;;2.20;99.90;;;3.06;100.00;99812.50;4989601;28;20238;-65
2021/01/08 08:55:32;;;;;;;13.37;9.83;;;2.20;99.90;;;3.36;100.00;99816.88;4988896;28;20247;-64
2021/01/08 08:58:08;;;;;;;12.27;9.77;;;2.30;99.90;;;3.12;100.00;99817.09;4989197;28;20294;-64
2021/01/08 09:00:38;;;;;;;13.60;9.83;;;2.30;99.90;;;3.09;100.00;99814.81;4989261;28;20785;-64
2021/01/08 09:03:20;;;;;;;15.00;11.07;;;2.20;99.90;;;3.18;100.00;99820.88;4989515;28;20196;-65
2021/01/08 09:05:50;;;;;;;16.20;12.57;;;2.30;99.90;;;3.40;100.00;99820.81;4989109;28;20223;-64
2021/01/08 09:08:22;;;;;;;16.03;11.83;;;2.30;99.90;;;3.49;100.00;99822.38;4989385;28;20307;-64
2021/01/08 09:10:58;;;;;;;15.53;11.37;;;2.40;99.90;;;3.47;100.00;99826.22;4988641;28;20189;-64
2021/01/08 09:13:54;;;;;;;14.90;11.73;;;2.40;99.90;;;3.27;100.00;99822.44;4989638;28;20211;-63
2021/01/08 09:16:40;;;;;;;15.00;12.07;;;2.40;99.90;;;3.21;100.00;99823.19;4989217;28;20245;-64
2021/01/08 09:19:16;;;;;;;15.73;12.50;;;2.30;99.90;;;3.18;100.00;99828.88;4989030;28;20307;-63
2021/01/08 09:21:48;;;;;;;14.40;10.90;;;2.30;99.90;;;3.18;100.00;99824.34;4989382;28;20217;-63
2021/01/08 09:24:22;;;;;;;13.47;10.90;;;2.30;99.90;;;3.22;100.00;99824.81;4989341;28;20200;-63
2021/01/08 09:26:52;;;;;;;13.03;10.40;;;2.30;99.90;;;3.29;100.00;99825.75;4988716;28;20200;-63
2021/01/08 09:29:31;;;;;;;13.20;9.73;;;2.30;99.90;;;3.47;100.00;99829.72;4988719;28;20264;-62
2021/01/08 09:32:01;;;;;;;14.10;10.50;;;2.30;99.90;;;3.25;100.00;99824.44;4988709;28;20231;-63
2021/01/08 09:34:30;;;;;;;17.00;12.17;;;2.40;99.90;;;3.28;100.00;99827.59;4989030;28;20211;-62
2021/01/08 09:37:12;;;;;;;14.10;10.50;;;2.40;99.90;;;3.54;100.00;99825.31;4988368;28;20267;-63
2021/01/08 09:39:41;;;;;;;16.43;12.13;;;2.40;99.90;;;3.74;100.00;99822.94;4989239;28;20282;-62
2021/01/08 09:42:11;;;;;;;14.40;10.60;;;2.60;99.90;;;3.67;100.00;99827.34;4984332;28;20693;-59
2021/01/08 09:44:41;;;;;;;14.03;9.60;;;2.60;99.90;;;3.92;100.00;99827.88;4985391;28;20192;-59
2021/01/08 09:47:13;;;;;;;14.00;10.30;;;2.70;99.90;;;3.70;100.00;99824.31;4985540;28;20970;-60
2021/01/08 09:49:44;;;;;;;16.00;10.00;;;2.70;99.90;;;3.83;100.00;99829.00;4985590;28;20268;-60
2021/01/08 09:52:13;;;;;;;13.20;10.40;;;2.80;99.90;;;4.08;100.00;99825.00;4985946;28;20279;-62
2021/01/08 09:54:45;;;;;;;13.13;9.70;;;2.90;99.90;;;4.13;100.00;99817.28;4988860;28;20207;-61
2021/01/08 09:57:27;;;;;;;14.60;10.57;;;3.00;99.90;;;3.97;100.00;99831.66;4987699;28;20231;-61
2021/01/08 09:59:56;;;;;;;13.40;9.80;;;3.10;99.90;;;4.10;100.00;99830.97;4988353;28;20591;-61
2021/01/08 10:02:36;;;;;;;13.07;9.57;;;3.10;99.90;;;4.08;100.00;99828.50;4988556;28;20211;-62
2021/01/08 10:05:08;;;;;;;13.43;9.60;;;3.20;99.90;;;3.97;100.00;99831.66;4988884;28;20219;-62
2021/01/08 10:07:43;;;;;;;14.13;10.33;;;3.20;99.90;;;4.00;100.00;99833.94;4988045;28;20192;-62
2021/01/08 10:10:12;;;;;;;13.60;10.00;;;3.10;99.90;;;3.91;100.00;99831.59;4988031;28;20285;-61
2021/01/08 10:12:49;;;;;;;13.90;11.00;;;3.10;99.90;;;3.97;100.00;99830.81;4988021;28;20246;-62
2021/01/08 10:15:19;;;;;;;12.40;9.63;;;3.10;99.90;;;4.07;100.00;99829.53;4988001;28;20249;-62
2021/01/08 10:17:52;;;;;;;12.10;9.83;;;3.10;99.90;;;3.82;100.00;99838.84;4988260;28;20232;-63
2021/01/08 10:20:24;;;;;;;12.97;9.40;;;3.10;99.90;;;4.11;100.00;99838.78;4988215;28;20672;-62
2021/01/08 10:22:53;;;;;;;12.83;9.73;;;3.00;99.90;;;4.10;100.00;99834.47;4988326;28;20403;-63
2021/01/08 10:25:28;;;;;;;13.03;9.70;;;3.10;99.90;;;4.26;100.00;99834.25;4987960;28;20242;-62
2021/01/08 10:28:15;;;;;;;14.47;10.20;;;3.20;99.90;;;4.16;100.00;99832.91;4987707;28;20195;-64